sensor_id;sensor_type;location;lat;lon;timestamp;P1;durP1;ratioP1;P2;durP2;ratioP2
13443;SDS011;6794;59.218;18.218;2023-02-15T00:01:18;9.87;;;4.60;;
13443;SDS011;6794;59.218;18.218;2023-02-15T00:03:44;7.33;;;4.50;;
13443;SDS011;6794;59.218;18.218;2023-02-15T00:06:10;7.33;;;4.10;;
13443;SDS011;6794;59.218;18.218;2023-02-15T00:08:36;8.43;;;4.20;;
13443;SDS011;6794;59.218;18.218;2023-02-15T00:11:03;6.30;;;4.03;;
13443;SDS011;6794;59.218;18.218;2023-02-15T00:13:29;6.97;;;4.23;;
13443;SDS011;6794;59.218;18.218;2023-02-15T00:15:59;6.23;;;4.30;;
13443;SDS011;6794;59.218;18.218;2023-02-15T00:18:25;6.47;;;4.10;;
13443;SDS011;6794;59.218;18.218;2023-02-15T00:20:52;10.83;;;4.60;;
13443;SDS011;6794;59.218;18.218;2023-02-15T00:23:18;8.83;;;4.20;;
13443;SDS011;6794;59.218;18.218;2023-02-15T00:25:44;8.10;;;4.27;;
13443;SDS011;6794;59.218;18.218;2023-02-15T00:28:10;7.43;;;4.23;;
13443;SDS011;6794;59.218;18.218;2023-02-15T00:30:36;9.87;;;4.23;;
13443;SDS011;6794;59.218;18.218;2023-02-15T00:33:02;7.88;;;4.40;;
13443;SDS011;6794;59.218;18.218;2023-02-15T00:35:28;6.63;;;3.90;;
13443;SDS011;6794;59.218;18.218;2023-02-15T00:37:55;5.33;;;4.03;;
13443;SDS011;6794;59.218;18.218;2023-02-15T00:40:21;8.37;;;3.97;;
13443;SDS011;6794;59.218;18.218;2023-02-15T00:42:47;6.67;;;3.97;;
13443;SDS011;6794;59.218;18.218;2023-02-15T00:45:14;7.17;;;3.80;;
13443;SDS011;6794;59.218;18.218;2023-02-15T00:47:40;7.33;;;3.90;;
13443;SDS011;6794;59.218;18.218;2023-02-15T00:50:06;7.20;;;4.50;;
13443;SDS011;6794;59.218;18.218;2023-02-15T00:52:32;5.50;;;3.80;;
13443;SDS011;6794;59.218;18.218;2023-02-15T00:54:58;6.43;;;3.73;;
13443;SDS011;6794;59.218;18.218;2023-02-15T00:57:24;5.40;;;3.80;;
13443;SDS011;6794;59.218;18.218;2023-02-15T00:59:50;8.27;;;4.17;;
13443;SDS011;6794;59.218;18.218;2023-02-15T01:02:16;6.07;;;3.30;;
13443;SDS011;6794;59.218;18.218;2023-02-15T01:04:43;7.40;;;3.67;;
13443;SDS011;6794;59.218;18.218;2023-02-15T01:07:09;8.97;;;4.10;;
13443;SDS011;6794;59.218;18.218;2023-02-15T01:09:35;6.23;;;3.37;;
13443;SDS011;6794;59.218;18.218;2023-02-15T01:12:01;6.17;;;3.43;;
13443;SDS011;6794;59.218;18.218;2023-02-15T01:14:27;6.53;;;3.27;;
13443;SDS011;6794;59.218;18.218;2023-02-15T01:16:53;10.00;;;3.97;;
13443;SDS011;6794;59.218;18.218;2023-02-15T01:19:19;7.80;;;4.68;;
13443;SDS011;6794;59.218;18.218;2023-02-15T01:21:45;6.83;;;3.77;;
13443;SDS011;6794;59.218;18.218;2023-02-15T01:24:12;7.47;;;3.47;;
13443;SDS011;6794;59.218;18.218;2023-02-15T01:26:38;4.60;;;3.20;;
13443;SDS011;6794;59.218;18.218;2023-02-15T01:29:05;6.80;;;4.10;;
13443;SDS011;6794;59.218;18.218;2023-02-15T01:31:31;8.23;;;3.70;;
13443;SDS011;6794;59.218;18.218;2023-02-15T01:33:57;3.40;;;2.77;;
13443;SDS011;6794;59.218;18.218;2023-02-15T01:36:23;4.77;;;3.30;;
13443;SDS011;6794;59.218;18.218;2023-02-15T01:38:49;4.17;;;3.23;;
13443;SDS011;6794;59.218;18.218;2023-02-15T01:41:15;6.50;;;3.23;;
13443;SDS011;6794;59.218;18.218;2023-02-15T01:44:01;5.13;;;3.33;;
13443;SDS011;6794;59.218;18.218;2023-02-15T01:48:59;6.63;;;3.20;;
13443;SDS011;6794;59.218;18.218;2023-02-15T01:51:28;4.57;;;2.97;;
13443;SDS011;6794;59.218;18.218;2023-02-15T01:53:57;5.00;;;3.30;;
13443;SDS011;6794;59.218;18.218;2023-02-15T01:56:26;4.80;;;3.10;;
13443;SDS011;6794;59.218;18.218;2023-02-15T01:58:53;6.30;;;3.50;;
13443;SDS011;6794;59.218;18.218;2023-02-15T02:01:22;5.97;;;3.77;;
13443;SDS011;6794;59.218;18.218;2023-02-15T02:03:53;7.63;;;3.40;;
13443;SDS011;6794;59.218;18.218;2023-02-15T02:06:23;5.87;;;3.57;;
13443;SDS011;6794;59.218;18.218;2023-02-15T02:08:49;5.40;;;3.30;;
13443;SDS011;6794;59.218;18.218;2023-02-15T02:11:15;5.73;;;3.10;;
13443;SDS011;6794;59.218;18.218;2023-02-15T02:13:42;6.90;;;3.40;;
13443;SDS011;6794;59.218;18.218;2023-02-15T02:16:11;5.37;;;3.20;;
13443;SDS011;6794;59.218;18.218;2023-02-15T02:18:51;6.50;;;3.70;;
13443;SDS011;6794;59.218;18.218;2023-02-15T02:21:30;6.70;;;3.30;;
13443;SDS011;6794;59.218;18.218;2023-02-15T02:29:30;5.20;;;3.30;;
13443;SDS011;6794;59.218;18.218;2023-02-15T02:40:07;4.00;;;3.10;;
13443;SDS011;6794;59.218;18.218;2023-02-15T02:42:43;5.77;;;3.97;;
13443;SDS011;6794;59.218;18.218;2023-02-15T02:45:13;5.57;;;3.70;;
13443;SDS011;6794;59.218;18.218;2023-02-15T02:47:49;8.55;;;4.70;;
13443;SDS011;6794;59.218;18.218;2023-02-15T02:50:21;6.13;;;3.90;;
13443;SDS011;6794;59.218;18.218;2023-02-15T02:52:48;7.23;;;3.70;;
13443;SDS011;6794;59.218;18.218;2023-02-15T02:55:23;5.70;;;3.70;;
13443;SDS011;6794;59.218;18.218;2023-02-15T02:57:57;5.10;;;3.23;;
13443;SDS011;6794;59.218;18.218;2023-02-15T03:00:27;4.87;;;3.30;;
13443;SDS011;6794;59.218;18.218;2023-02-15T03:03:32;6.33;;;3.63;;
13443;SDS011;6794;59.218;18.218;2023-02-15T03:09:01;7.47;;;3.83;;
13443;SDS011;6794;59.218;18.218;2023-02-15T03:11:29;7.47;;;3.73;;
13443;SDS011;6794;59.218;18.218;2023-02-15T03:20:17;6.73;;;3.37;;
13443;SDS011;6794;59.218;18.218;2023-02-15T03:22:46;6.73;;;4.17;;
13443;SDS011;6794;59.218;18.218;2023-02-15T03:25:19;5.13;;;3.73;;
13443;SDS011;6794;59.218;18.218;2023-02-15T03:28:08;6.70;;;4.30;;
13443;SDS011;6794;59.218;18.218;2023-02-15T03:30:36;6.25;;;4.30;;
13443;SDS011;6794;59.218;18.218;2023-02-15T03:33:03;7.43;;;3.90;;
13443;SDS011;6794;59.218;18.218;2023-02-15T03:35:34;6.30;;;4.43;;
13443;SDS011;6794;59.218;18.218;2023-02-15T03:38:02;6.43;;;4.00;;
13443;SDS011;6794;59.218;18.218;2023-02-15T03:40:30;6.00;;;3.90;;
13443;SDS011;6794;59.218;18.218;2023-02-15T03:46:05;7.10;;;3.80;;
13443;SDS011;6794;59.218;18.218;2023-02-15T03:48:44;8.30;;;4.30;;
13443;SDS011;6794;59.218;18.218;2023-02-15T03:51:17;7.83;;;4.23;;
13443;SDS011;6794;59.218;18.218;2023-02-15T03:54:01;6.10;;;4.33;;
13443;SDS011;6794;59.218;18.218;2023-02-15T03:56:27;8.00;;;4.50;;
13443;SDS011;6794;59.218;18.218;2023-02-15T03:58:59;7.37;;;4.93;;
13443;SDS011;6794;59.218;18.218;2023-02-15T04:11:12;6.37;;;5.00;;
13443;SDS011;6794;59.218;18.218;2023-02-15T04:13:38;8.40;;;4.63;;
13443;SDS011;6794;59.218;18.218;2023-02-15T04:16:05;9.05;;;5.53;;
13443;SDS011;6794;59.218;18.218;2023-02-15T04:18:34;11.00;;;5.10;;
13443;SDS011;6794;59.218;18.218;2023-02-15T04:21:20;6.97;;;4.63;;
13443;SDS011;6794;59.218;18.218;2023-02-15T04:24:06;6.83;;;4.17;;
13443;SDS011;6794;59.218;18.218;2023-02-15T04:26:51;9.33;;;4.57;;
13443;SDS011;6794;59.218;18.218;2023-02-15T04:29:23;7.90;;;5.10;;
13443;SDS011;6794;59.218;18.218;2023-02-15T04:31:51;10.47;;;5.00;;
13443;SDS011;6794;59.218;18.218;2023-02-15T04:34:17;7.40;;;4.87;;
13443;SDS011;6794;59.218;18.218;2023-02-15T04:36:43;7.27;;;4.17;;
13443;SDS011;6794;59.218;18.218;2023-02-15T04:39:12;7.13;;;4.73;;
13443;SDS011;6794;59.218;18.218;2023-02-15T04:41:38;6.37;;;4.67;;
13443;SDS011;6794;59.218;18.218;2023-02-15T04:44:05;8.30;;;4.73;;
13443;SDS011;6794;59.218;18.218;2023-02-15T04:46:34;7.77;;;4.90;;
13443;SDS011;6794;59.218;18.218;2023-02-15T04:49:05;9.87;;;5.37;;
13443;SDS011;6794;59.218;18.218;2023-02-15T04:51:32;7.80;;;4.87;;
13443;SDS011;6794;59.218;18.218;2023-02-15T04:53:58;10.47;;;5.80;;
13443;SDS011;6794;59.218;18.218;2023-02-15T04:56:24;8.83;;;4.77;;
13443;SDS011;6794;59.218;18.218;2023-02-15T04:58:50;8.48;;;5.07;;
13443;SDS011;6794;59.218;18.218;2023-02-15T05:01:19;8.73;;;6.88;;
13443;SDS011;6794;59.218;18.218;2023-02-15T05:03:57;8.10;;;5.53;;
13443;SDS011;6794;59.218;18.218;2023-02-15T05:06:23;8.83;;;5.50;;
13443;SDS011;6794;59.218;18.218;2023-02-15T05:08:49;9.77;;;5.70;;
13443;SDS011;6794;59.218;18.218;2023-02-15T05:11:18;10.17;;;5.63;;
13443;SDS011;6794;59.218;18.218;2023-02-15T05:13:47;9.67;;;5.50;;
13443;SDS011;6794;59.218;18.218;2023-02-15T05:16:13;7.97;;;5.40;;
13443;SDS011;6794;59.218;18.218;2023-02-15T05:18:39;10.83;;;5.83;;
13443;SDS011;6794;59.218;18.218;2023-02-15T05:21:06;7.83;;;5.23;;
13443;SDS011;6794;59.218;18.218;2023-02-15T05:23:32;8.40;;;5.70;;
13443;SDS011;6794;59.218;18.218;2023-02-15T05:26:01;9.13;;;6.37;;
13443;SDS011;6794;59.218;18.218;2023-02-15T05:28:45;9.73;;;5.90;;
13443;SDS011;6794;59.218;18.218;2023-02-15T05:31:15;9.93;;;6.20;;
13443;SDS011;6794;59.218;18.218;2023-02-15T05:33:42;10.40;;;5.70;;
13443;SDS011;6794;59.218;18.218;2023-02-15T05:36:09;8.43;;;5.70;;
13443;SDS011;6794;59.218;18.218;2023-02-15T05:38:35;10.23;;;5.80;;
13443;SDS011;6794;59.218;18.218;2023-02-15T05:41:02;10.73;;;6.00;;
13443;SDS011;6794;59.218;18.218;2023-02-15T05:43:29;10.73;;;6.57;;
13443;SDS011;6794;59.218;18.218;2023-02-15T05:45:56;10.07;;;6.43;;
13443;SDS011;6794;59.218;18.218;2023-02-15T05:48:23;8.50;;;6.13;;
13443;SDS011;6794;59.218;18.218;2023-02-15T05:53:43;9.23;;;6.13;;
13443;SDS011;6794;59.218;18.218;2023-02-15T05:56:09;10.87;;;6.37;;
13443;SDS011;6794;59.218;18.218;2023-02-15T05:58:42;10.20;;;6.17;;
13443;SDS011;6794;59.218;18.218;2023-02-15T06:03:42;8.53;;;5.27;;
13443;SDS011;6794;59.218;18.218;2023-02-15T06:06:08;10.07;;;6.03;;
13443;SDS011;6794;59.218;18.218;2023-02-15T06:08:35;10.73;;;6.67;;
13443;SDS011;6794;59.218;18.218;2023-02-15T06:11:02;8.63;;;5.90;;
13443;SDS011;6794;59.218;18.218;2023-02-15T06:13:28;11.27;;;7.33;;
13443;SDS011;6794;59.218;18.218;2023-02-15T06:15:54;9.63;;;6.70;;
13443;SDS011;6794;59.218;18.218;2023-02-15T06:18:21;10.03;;;6.37;;
13443;SDS011;6794;59.218;18.218;2023-02-15T06:23:38;10.40;;;6.17;;
13443;SDS011;6794;59.218;18.218;2023-02-15T06:26:08;9.67;;;6.30;;
13443;SDS011;6794;59.218;18.218;2023-02-15T06:28:37;12.02;;;8.65;;
13443;SDS011;6794;59.218;18.218;2023-02-15T06:31:06;10.57;;;6.33;;
13443;SDS011;6794;59.218;18.218;2023-02-15T06:33:33;11.13;;;6.77;;
13443;SDS011;6794;59.218;18.218;2023-02-15T06:35:59;12.60;;;7.17;;
13443;SDS011;6794;59.218;18.218;2023-02-15T06:38:29;9.03;;;6.37;;
13443;SDS011;6794;59.218;18.218;2023-02-15T06:40:56;11.33;;;6.87;;
13443;SDS011;6794;59.218;18.218;2023-02-15T06:43:22;10.87;;;7.33;;
13443;SDS011;6794;59.218;18.218;2023-02-15T06:45:48;10.53;;;6.73;;
13443;SDS011;6794;59.218;18.218;2023-02-15T06:48:14;9.63;;;6.00;;
13443;SDS011;6794;59.218;18.218;2023-02-15T06:50:40;9.47;;;6.33;;
13443;SDS011;6794;59.218;18.218;2023-02-15T06:53:06;10.63;;;6.03;;
13443;SDS011;6794;59.218;18.218;2023-02-15T06:55:33;10.03;;;5.87;;
13443;SDS011;6794;59.218;18.218;2023-02-15T06:57:59;10.40;;;6.43;;
13443;SDS011;6794;59.218;18.218;2023-02-15T07:00:41;10.17;;;5.93;;
13443;SDS011;6794;59.218;18.218;2023-02-15T07:03:07;10.27;;;5.83;;
13443;SDS011;6794;59.218;18.218;2023-02-15T07:05:33;11.23;;;6.17;;
13443;SDS011;6794;59.218;18.218;2023-02-15T07:08:04;11.83;;;6.63;;
13443;SDS011;6794;59.218;18.218;2023-02-15T07:10:33;10.93;;;6.27;;
13443;SDS011;6794;59.218;18.218;2023-02-15T07:12:59;11.45;;;8.35;;
13443;SDS011;6794;59.218;18.218;2023-02-15T07:15:25;11.03;;;6.60;;
13443;SDS011;6794;59.218;18.218;2023-02-15T07:17:51;12.37;;;6.73;;
13443;SDS011;6794;59.218;18.218;2023-02-15T07:20:21;10.90;;;6.83;;
13443;SDS011;6794;59.218;18.218;2023-02-15T07:22:47;9.63;;;6.83;;
13443;SDS011;6794;59.218;18.218;2023-02-15T07:25:17;11.80;;;6.10;;
13443;SDS011;6794;59.218;18.218;2023-02-15T07:27:46;8.30;;;5.80;;
13443;SDS011;6794;59.218;18.218;2023-02-15T07:30:14;11.20;;;6.93;;
13443;SDS011;6794;59.218;18.218;2023-02-15T07:32:40;10.53;;;6.60;;
13443;SDS011;6794;59.218;18.218;2023-02-15T07:35:25;8.27;;;5.37;;
13443;SDS011;6794;59.218;18.218;2023-02-15T07:37:52;8.03;;;5.90;;
13443;SDS011;6794;59.218;18.218;2023-02-15T07:40:18;7.43;;;5.47;;
13443;SDS011;6794;59.218;18.218;2023-02-15T07:42:47;9.77;;;6.30;;
13443;SDS011;6794;59.218;18.218;2023-02-15T07:45:22;9.20;;;6.07;;
13443;SDS011;6794;59.218;18.218;2023-02-15T07:47:55;9.87;;;5.37;;
13443;SDS011;6794;59.218;18.218;2023-02-15T07:50:21;8.77;;;6.43;;
13443;SDS011;6794;59.218;18.218;2023-02-15T07:52:47;10.63;;;5.67;;
13443;SDS011;6794;59.218;18.218;2023-02-15T07:55:13;9.07;;;6.03;;
13443;SDS011;6794;59.218;18.218;2023-02-15T07:57:43;10.85;;;7.63;;
13443;SDS011;6794;59.218;18.218;2023-02-15T08:00:16;8.97;;;6.27;;
13443;SDS011;6794;59.218;18.218;2023-02-15T08:02:49;10.13;;;6.77;;
13443;SDS011;6794;59.218;18.218;2023-02-15T08:05:34;9.07;;;5.87;;
13443;SDS011;6794;59.218;18.218;2023-02-15T08:08:00;11.10;;;7.13;;
13443;SDS011;6794;59.218;18.218;2023-02-15T08:10:27;7.77;;;5.47;;
13443;SDS011;6794;59.218;18.218;2023-02-15T08:13:12;9.07;;;5.40;;
13443;SDS011;6794;59.218;18.218;2023-02-15T08:15:38;8.47;;;5.33;;
13443;SDS011;6794;59.218;18.218;2023-02-15T08:18:04;8.07;;;5.00;;
13443;SDS011;6794;59.218;18.218;2023-02-15T08:20:30;7.97;;;5.70;;
13443;SDS011;6794;59.218;18.218;2023-02-15T08:22:59;13.50;;;6.23;;
13443;SDS011;6794;59.218;18.218;2023-02-15T08:25:29;9.90;;;6.07;;
13443;SDS011;6794;59.218;18.218;2023-02-15T08:27:55;9.05;;;6.65;;
13443;SDS011;6794;59.218;18.218;2023-02-15T08:30:22;6.67;;;5.20;;
13443;SDS011;6794;59.218;18.218;2023-02-15T08:32:48;7.80;;;5.87;;
13443;SDS011;6794;59.218;18.218;2023-02-15T08:35:17;11.43;;;6.00;;
13443;SDS011;6794;59.218;18.218;2023-02-15T08:37:43;8.40;;;5.73;;
13443;SDS011;6794;59.218;18.218;2023-02-15T08:40:13;9.10;;;5.40;;
13443;SDS011;6794;59.218;18.218;2023-02-15T08:42:39;10.55;;;7.40;;
13443;SDS011;6794;59.218;18.218;2023-02-15T08:45:05;8.80;;;5.67;;
13443;SDS011;6794;59.218;18.218;2023-02-15T08:47:32;9.80;;;5.80;;
13443;SDS011;6794;59.218;18.218;2023-02-15T08:49:58;7.93;;;5.60;;
13443;SDS011;6794;59.218;18.218;2023-02-15T08:52:24;7.43;;;5.23;;
13443;SDS011;6794;59.218;18.218;2023-02-15T08:54:51;8.53;;;5.10;;
13443;SDS011;6794;59.218;18.218;2023-02-15T08:57:17;8.90;;;5.90;;
13443;SDS011;6794;59.218;18.218;2023-02-15T08:59:52;8.33;;;5.37;;
13443;SDS011;6794;59.218;18.218;2023-02-15T09:02:20;8.00;;;5.03;;
13443;SDS011;6794;59.218;18.218;2023-02-15T09:05:08;9.03;;;5.53;;
13443;SDS011;6794;59.218;18.218;2023-02-15T09:07:34;8.50;;;4.90;;
13443;SDS011;6794;59.218;18.218;2023-02-15T09:10:09;6.87;;;5.20;;
13443;SDS011;6794;59.218;18.218;2023-02-15T09:12:36;6.20;;;4.57;;
13443;SDS011;6794;59.218;18.218;2023-02-15T09:15:02;7.73;;;5.00;;
13443;SDS011;6794;59.218;18.218;2023-02-15T09:20:05;7.10;;;4.87;;
13443;SDS011;6794;59.218;18.218;2023-02-15T09:22:37;6.30;;;4.73;;
13443;SDS011;6794;59.218;18.218;2023-02-15T09:25:03;7.43;;;5.13;;
13443;SDS011;6794;59.218;18.218;2023-02-15T09:27:29;6.87;;;5.30;;
13443;SDS011;6794;59.218;18.218;2023-02-15T09:29:55;6.57;;;5.23;;
13443;SDS011;6794;59.218;18.218;2023-02-15T09:32:22;7.50;;;4.63;;
13443;SDS011;6794;59.218;18.218;2023-02-15T09:34:54;8.93;;;5.07;;
13443;SDS011;6794;59.218;18.218;2023-02-15T09:37:26;8.00;;;4.97;;
13443;SDS011;6794;59.218;18.218;2023-02-15T09:43:11;7.83;;;5.30;;
13443;SDS011;6794;59.218;18.218;2023-02-15T09:45:54;5.97;;;4.30;;
13443;SDS011;6794;59.218;18.218;2023-02-15T09:48:27;7.13;;;4.80;;
13443;SDS011;6794;59.218;18.218;2023-02-15T09:56:31;6.47;;;4.30;;
13443;SDS011;6794;59.218;18.218;2023-02-15T10:01:53;5.90;;;4.20;;
13443;SDS011;6794;59.218;18.218;2023-02-15T10:07:03;7.87;;;4.37;;
13443;SDS011;6794;59.218;18.218;2023-02-15T10:12:15;7.93;;;4.70;;
13443;SDS011;6794;59.218;18.218;2023-02-15T10:14:51;6.07;;;4.60;;
13443;SDS011;6794;59.218;18.218;2023-02-15T10:25:32;5.77;;;4.03;;
13443;SDS011;6794;59.218;18.218;2023-02-15T10:28:06;6.70;;;4.40;;
13443;SDS011;6794;59.218;18.218;2023-02-15T10:30:48;7.60;;;4.90;;
13443;SDS011;6794;59.218;18.218;2023-02-15T10:36:10;5.50;;;3.87;;
13443;SDS011;6794;59.218;18.218;2023-02-15T10:38:50;6.43;;;4.10;;
13443;SDS011;6794;59.218;18.218;2023-02-15T10:41:42;7.97;;;4.73;;
13443;SDS011;6794;59.218;18.218;2023-02-15T10:49:23;6.70;;;4.30;;
13443;SDS011;6794;59.218;18.218;2023-02-15T10:51:56;6.70;;;4.27;;
13443;SDS011;6794;59.218;18.218;2023-02-15T10:54:32;7.22;;;5.10;;
13443;SDS011;6794;59.218;18.218;2023-02-15T11:04:46;8.13;;;4.20;;
13443;SDS011;6794;59.218;18.218;2023-02-15T11:07:22;6.53;;;4.27;;
13443;SDS011;6794;59.218;18.218;2023-02-15T11:09:51;7.03;;;4.60;;
13443;SDS011;6794;59.218;18.218;2023-02-15T11:12:21;5.10;;;3.77;;
13443;SDS011;6794;59.218;18.218;2023-02-15T11:17:35;5.67;;;4.10;;
13443;SDS011;6794;59.218;18.218;2023-02-15T11:22:33;8.10;;;4.90;;
13443;SDS011;6794;59.218;18.218;2023-02-15T11:24:59;6.70;;;4.20;;
13443;SDS011;6794;59.218;18.218;2023-02-15T11:27:30;8.10;;;4.93;;
13443;SDS011;6794;59.218;18.218;2023-02-15T11:32:28;6.70;;;4.60;;
13443;SDS011;6794;59.218;18.218;2023-02-15T11:35:04;7.73;;;5.07;;
13443;SDS011;6794;59.218;18.218;2023-02-15T11:37:57;7.75;;;5.50;;
13443;SDS011;6794;59.218;18.218;2023-02-15T11:40:45;8.27;;;5.70;;
13443;SDS011;6794;59.218;18.218;2023-02-15T11:43:14;8.40;;;5.70;;
13443;SDS011;6794;59.218;18.218;2023-02-15T11:45:48;8.40;;;5.20;;
13443;SDS011;6794;59.218;18.218;2023-02-15T11:48:15;9.73;;;5.67;;
13443;SDS011;6794;59.218;18.218;2023-02-15T11:50:42;8.50;;;5.40;;
13443;SDS011;6794;59.218;18.218;2023-02-15T11:53:11;7.47;;;5.13;;
13443;SDS011;6794;59.218;18.218;2023-02-15T11:55:38;8.20;;;5.33;;
13443;SDS011;6794;59.218;18.218;2023-02-15T12:04:10;8.77;;;5.40;;
13443;SDS011;6794;59.218;18.218;2023-02-15T12:06:45;7.70;;;4.93;;
13443;SDS011;6794;59.218;18.218;2023-02-15T12:09:18;9.17;;;5.07;;
13443;SDS011;6794;59.218;18.218;2023-02-15T12:11:46;10.27;;;6.00;;
13443;SDS011;6794;59.218;18.218;2023-02-15T12:14:12;12.40;;;5.70;;
13443;SDS011;6794;59.218;18.218;2023-02-15T12:16:43;9.93;;;5.40;;
13443;SDS011;6794;59.218;18.218;2023-02-15T12:19:21;8.27;;;5.47;;
13443;SDS011;6794;59.218;18.218;2023-02-15T12:21:49;11.30;;;7.28;;
13443;SDS011;6794;59.218;18.218;2023-02-15T12:24:25;10.70;;;6.40;;
13443;SDS011;6794;59.218;18.218;2023-02-15T12:26:56;11.23;;;6.30;;
13443;SDS011;6794;59.218;18.218;2023-02-15T12:29:25;13.50;;;6.50;;
13443;SDS011;6794;59.218;18.218;2023-02-15T12:31:52;10.10;;;6.00;;
13443;SDS011;6794;59.218;18.218;2023-02-15T12:36:54;10.80;;;6.27;;
13443;SDS011;6794;59.218;18.218;2023-02-15T12:40:18;9.67;;;5.90;;
13443;SDS011;6794;59.218;18.218;2023-02-15T12:42:21;11.47;;;6.67;;
13443;SDS011;6794;59.218;18.218;2023-02-15T12:45:02;10.07;;;6.17;;
13443;SDS011;6794;59.218;18.218;2023-02-15T12:47:28;10.87;;;6.83;;
13443;SDS011;6794;59.218;18.218;2023-02-15T12:52:49;12.37;;;6.63;;
13443;SDS011;6794;59.218;18.218;2023-02-15T12:57:48;10.73;;;6.57;;
13443;SDS011;6794;59.218;18.218;2023-02-15T13:00:25;11.53;;;7.40;;
13443;SDS011;6794;59.218;18.218;2023-02-15T13:02:53;10.27;;;6.30;;
13443;SDS011;6794;59.218;18.218;2023-02-15T13:07:56;9.50;;;6.07;;
13443;SDS011;6794;59.218;18.218;2023-02-15T13:13:10;11.10;;;6.70;;
13443;SDS011;6794;59.218;18.218;2023-02-15T13:15:38;11.47;;;6.23;;
13443;SDS011;6794;59.218;18.218;2023-02-15T13:18:10;10.20;;;6.17;;
13443;SDS011;6794;59.218;18.218;2023-02-15T13:20:40;10.00;;;5.70;;
13443;SDS011;6794;59.218;18.218;2023-02-15T13:23:16;8.30;;;5.53;;
13443;SDS011;6794;59.218;18.218;2023-02-15T13:25:45;9.70;;;5.80;;
13443;SDS011;6794;59.218;18.218;2023-02-15T13:28:15;7.87;;;5.37;;
13443;SDS011;6794;59.218;18.218;2023-02-15T13:30:43;11.50;;;5.70;;
13443;SDS011;6794;59.218;18.218;2023-02-15T13:33:21;9.93;;;5.90;;
13443;SDS011;6794;59.218;18.218;2023-02-15T13:36:00;9.37;;;5.90;;
13443;SDS011;6794;59.218;18.218;2023-02-15T13:38:42;10.73;;;5.73;;
13443;SDS011;6794;59.218;18.218;2023-02-15T13:46:48;9.37;;;6.27;;
13443;SDS011;6794;59.218;18.218;2023-02-15T13:49:33;12.27;;;6.75;;
13443;SDS011;6794;59.218;18.218;2023-02-15T13:52:27;10.90;;;6.37;;
13443;SDS011;6794;59.218;18.218;2023-02-15T13:57:37;10.80;;;6.90;;
13443;SDS011;6794;59.218;18.218;2023-02-15T14:00:15;9.80;;;6.40;;
13443;SDS011;6794;59.218;18.218;2023-02-15T14:25:54;7.67;;;4.60;;
13443;SDS011;6794;59.218;18.218;2023-02-15T14:28:40;9.33;;;5.10;;
13443;SDS011;6794;59.218;18.218;2023-02-15T14:31:10;8.10;;;4.77;;
13443;SDS011;6794;59.218;18.218;2023-02-15T14:33:37;9.70;;;5.90;;
13443;SDS011;6794;59.218;18.218;2023-02-15T14:36:08;8.20;;;5.20;;
13443;SDS011;6794;59.218;18.218;2023-02-15T14:38:52;8.73;;;5.27;;
13443;SDS011;6794;59.218;18.218;2023-02-15T14:41:21;6.67;;;4.83;;
13443;SDS011;6794;59.218;18.218;2023-02-15T14:44:06;9.70;;;5.17;;
13443;SDS011;6794;59.218;18.218;2023-02-15T14:49:20;8.63;;;5.17;;
13443;SDS011;6794;59.218;18.218;2023-02-15T14:56:43;6.40;;;4.80;;
13443;SDS011;6794;59.218;18.218;2023-02-15T15:01:39;9.47;;;5.00;;
13443;SDS011;6794;59.218;18.218;2023-02-15T15:04:13;7.77;;;4.93;;
13443;SDS011;6794;59.218;18.218;2023-02-15T15:06:40;10.00;;;5.03;;
13443;SDS011;6794;59.218;18.218;2023-02-15T15:09:14;8.37;;;4.43;;
13443;SDS011;6794;59.218;18.218;2023-02-15T15:11:53;10.23;;;5.03;;
13443;SDS011;6794;59.218;18.218;2023-02-15T15:17:04;10.27;;;5.00;;
13443;SDS011;6794;59.218;18.218;2023-02-15T15:22:41;8.73;;;4.40;;
13443;SDS011;6794;59.218;18.218;2023-02-15T15:25:12;7.17;;;4.67;;
13443;SDS011;6794;59.218;18.218;2023-02-15T15:27:57;7.10;;;4.50;;
13443;SDS011;6794;59.218;18.218;2023-02-15T15:46:34;6.57;;;4.93;;
13443;SDS011;6794;59.218;18.218;2023-02-15T15:49:12;8.40;;;4.80;;
13443;SDS011;6794;59.218;18.218;2023-02-15T15:51:41;9.70;;;5.73;;
13443;SDS011;6794;59.218;18.218;2023-02-15T15:54:18;6.97;;;4.57;;
13443;SDS011;6794;59.218;18.218;2023-02-15T15:56:45;8.57;;;4.87;;
13443;SDS011;6794;59.218;18.218;2023-02-15T15:59:15;12.47;;;5.60;;
13443;SDS011;6794;59.218;18.218;2023-02-15T16:01:46;7.95;;;5.35;;
13443;SDS011;6794;59.218;18.218;2023-02-15T16:04:13;9.27;;;4.50;;
13443;SDS011;6794;59.218;18.218;2023-02-15T16:06:50;7.27;;;5.00;;
13443;SDS011;6794;59.218;18.218;2023-02-15T16:09:18;7.23;;;4.27;;
13443;SDS011;6794;59.218;18.218;2023-02-15T16:11:48;7.70;;;5.00;;
13443;SDS011;6794;59.218;18.218;2023-02-15T16:14:16;5.90;;;4.17;;
13443;SDS011;6794;59.218;18.218;2023-02-15T16:16:46;7.93;;;4.80;;
13443;SDS011;6794;59.218;18.218;2023-02-15T16:19:28;10.97;;;4.93;;
13443;SDS011;6794;59.218;18.218;2023-02-15T16:21:55;6.40;;;3.80;;
13443;SDS011;6794;59.218;18.218;2023-02-15T16:27:39;8.33;;;5.13;;
13443;SDS011;6794;59.218;18.218;2023-02-15T16:30:28;6.77;;;4.83;;
13443;SDS011;6794;59.218;18.218;2023-02-15T16:33:02;16.30;;;9.77;;
13443;SDS011;6794;59.218;18.218;2023-02-15T16:35:29;8.87;;;5.07;;
13443;SDS011;6794;59.218;18.218;2023-02-15T16:37:55;9.80;;;5.70;;
13443;SDS011;6794;59.218;18.218;2023-02-15T16:40:31;9.70;;;6.90;;
13443;SDS011;6794;59.218;18.218;2023-02-15T16:43:02;8.27;;;5.10;;
13443;SDS011;6794;59.218;18.218;2023-02-15T16:45:28;16.48;;;10.00;;
13443;SDS011;6794;59.218;18.218;2023-02-15T16:47:57;12.63;;;9.27;;
13443;SDS011;6794;59.218;18.218;2023-02-15T16:50:35;18.70;;;12.87;;
13443;SDS011;6794;59.218;18.218;2023-02-15T16:53:13;33.50;;;21.93;;
13443;SDS011;6794;59.218;18.218;2023-02-15T16:55:41;18.33;;;12.03;;
13443;SDS011;6794;59.218;18.218;2023-02-15T16:58:12;16.90;;;11.17;;
13443;SDS011;6794;59.218;18.218;2023-02-15T17:00:39;12.67;;;8.33;;
13443;SDS011;6794;59.218;18.218;2023-02-15T17:05:42;14.57;;;9.87;;
13443;SDS011;6794;59.218;18.218;2023-02-15T17:08:25;11.23;;;8.60;;
13443;SDS011;6794;59.218;18.218;2023-02-15T17:11:03;28.47;;;21.90;;
13443;SDS011;6794;59.218;18.218;2023-02-15T17:13:32;18.30;;;12.40;;
13443;SDS011;6794;59.218;18.218;2023-02-15T17:21:30;13.97;;;6.83;;
13443;SDS011;6794;59.218;18.218;2023-02-15T17:23:58;9.70;;;6.73;;
13443;SDS011;6794;59.218;18.218;2023-02-15T17:26:43;9.23;;;5.40;;
13443;SDS011;6794;59.218;18.218;2023-02-15T17:29:20;10.77;;;7.90;;
13443;SDS011;6794;59.218;18.218;2023-02-15T17:31:47;8.10;;;5.57;;
13443;SDS011;6794;59.218;18.218;2023-02-15T17:43:33;6.50;;;4.60;;
13443;SDS011;6794;59.218;18.218;2023-02-15T17:46:09;7.33;;;3.60;;
13443;SDS011;6794;59.218;18.218;2023-02-15T17:48:45;5.97;;;3.97;;
13443;SDS011;6794;59.218;18.218;2023-02-15T17:51:12;7.47;;;4.13;;
13443;SDS011;6794;59.218;18.218;2023-02-15T17:53:42;7.73;;;4.90;;
13443;SDS011;6794;59.218;18.218;2023-02-15T17:56:28;7.93;;;4.40;;
13443;SDS011;6794;59.218;18.218;2023-02-15T17:58:54;8.60;;;5.00;;
13443;SDS011;6794;59.218;18.218;2023-02-15T18:01:21;6.17;;;3.83;;
13443;SDS011;6794;59.218;18.218;2023-02-15T18:04:12;4.77;;;3.47;;
13443;SDS011;6794;59.218;18.218;2023-02-15T18:06:57;5.40;;;3.80;;
13443;SDS011;6794;59.218;18.218;2023-02-15T18:09:42;5.67;;;3.73;;
13443;SDS011;6794;59.218;18.218;2023-02-15T18:12:28;5.35;;;3.90;;
13443;SDS011;6794;59.218;18.218;2023-02-15T18:14:54;5.83;;;4.17;;
13443;SDS011;6794;59.218;18.218;2023-02-15T18:17:21;6.33;;;3.83;;
13443;SDS011;6794;59.218;18.218;2023-02-15T18:22:42;4.77;;;3.30;;
13443;SDS011;6794;59.218;18.218;2023-02-15T18:28:10;6.53;;;3.60;;
13443;SDS011;6794;59.218;18.218;2023-02-15T18:30:38;7.80;;;6.13;;